Sunday, June 17, 2018, 10:14 PM EDT
Back to Local

KMVY, Vineyard Haven Marthas Vin

Location: Vineyard Haven, MA, United States Lat: 41.4
Local Time: 10:14 PM EDT ( 2:14 GMT) Lon: -70.617
Time Zone: US/Eastern Elev: 68 ft

Show me the last for .
Show Decoded

2018-06-17 21:53 METAR KMVY 180153Z 19006KT 10SM CLR 17/16 A3010 RMK AO2 SLP190 T01670161 =
2018-06-17 20:53 METAR KMVY 180053Z 20004KT 10SM CLR 18/16 A3009 RMK AO2 SLP188 T01780156 =
2018-06-17 19:53 METAR KMVY 172353Z 21008KT 10SM CLR 19/16 A3009 RMK AO2 SLP189 T01940156 10267
                 20194 58001 =
2018-06-17 18:53 METAR KMVY 172253Z 22009KT 10SM CLR 21/16 A3010 RMK AO2 SLP192 T02060156 =
2018-06-17 17:53 METAR KMVY 172153Z 20010KT 10SM CLR 21/16 A3009 RMK AO2 SLP189 T02110156 =
2018-06-17 16:53 METAR KMVY 172053Z 21008KT 10SM CLR 23/14 A3010 RMK AO2 SLP190 T02330144 53008 =
2018-06-17 15:53 METAR KMVY 171953Z 20009KT 10SM CLR 24/14 A3009 RMK AO2 SLP187 T02440144 =
2018-06-17 14:53 METAR KMVY 171853Z 20009KT 10SM CLR 26/15 A3008 RMK AO2 SLP183 T02560150 =
2018-06-17 13:53 METAR KMVY 171753Z 17009KT 10SM CLR 27/16 A3007 RMK AO2 SLP182 T02670161 10289
                 20228 58006 =
2018-06-17 12:53 METAR KMVY 171653Z 16010KT 10SM CLR 28/16 A3007 RMK AO2 SLP182 T02780156 =
2018-06-17 11:53 METAR KMVY 171553Z VRB05KT 10SM CLR 28/14 A3009 RMK AO2 SLP188 T02830139 =
2018-06-17 10:53 METAR KMVY 171453Z 31006KT 10SM CLR 28/13 A3009 RMK AO2 SLP188 T02780133 53011 =
2018-06-17 09:53 METAR KMVY 171353Z VRB04KT 10SM CLR 27/14 A3007 RMK AO2 SLP182 T02720144 =
2018-06-17 08:53 METAR KMVY 171253Z 00000KT 10SM CLR 25/16 A3006 RMK AO2 SLP177 T02500156 =
2018-06-17 07:53 METAR KMVY 171153Z 33004KT 10SM CLR 23/14 A3006 RMK AO2 SLP176 T02280144 10228
                 20161 53011 =
2018-06-17 06:53 METAR KMVY 171053Z 29004KT 10SM CLR 19/13 A3004 RMK AO2 SLP172 T01890133 =
2018-06-17 05:53 METAR KMVY 170953Z 30004KT 10SM CLR 17/12 A3003 RMK AO2 SLP169 T01670117 =
2018-06-17 04:53 METAR KMVY 170853Z AUTO 28007KT 10SM CLR 19/11 A3002 RMK AO2 SLP165 T01890106
                 53005 =
2018-06-17 03:53 METAR KMVY 170753Z AUTO 28008KT 10SM CLR 19/11 A3001 RMK AO2 SLP162 T01890111 =
2018-06-17 02:53 METAR KMVY 170653Z AUTO 28007KT 10SM CLR 17/13 A3000 RMK AO2 SLP159 T01720128 =
2018-06-17 01:53 METAR KMVY 170553Z AUTO 27005KT 10SM CLR 17/13 A3001 RMK AO2 SLP160 T01670133
                 10200 20167 50000 =
2018-06-17 00:53 METAR KMVY 170453Z AUTO 27006KT 10SM CLR 17/13 A3001 RMK AO2 SLP162 T01720128
                 402670133 =
2018-06-16 23:53 METAR KMVY 170353Z AUTO 28006KT 10SM CLR 18/13 A3002 RMK AO2 SLP164 T01780128 =
2018-06-16 22:53 METAR KMVY 170253Z AUTO 27008KT 10SM CLR 19/12 A3001 RMK AO2 SLP160 T01890117
                 51014 =

Support USWX by starting your Amazon purchase here.